臺北終端管制區 - 桃園掃描雷達席

METAR RCTP 210200Z 31005KT 9999 FEW015 SCT100 22/17 Q1016 NOSIG RMK A3003=

站台狀態:Online
最後更新:2021-01-21 10:00:02